createdAt,value
2023-05-24T00:00:45.142Z,102403.56
2023-05-24T00:03:15.419Z,102406.88
2023-05-24T00:05:43.969Z,102405.78
2023-05-24T00:08:11.473Z,102410.84
2023-05-24T00:10:39.209Z,102411.56
2023-05-24T00:13:06.962Z,102409.00
2023-05-24T00:15:34.085Z,102402.28
2023-05-24T00:18:01.440Z,102399.88
2023-05-24T00:20:28.746Z,102387.59
2023-05-24T00:22:55.958Z,102394.53
2023-05-24T00:25:23.232Z,102397.78
2023-05-24T00:27:50.939Z,102396.75
2023-05-24T00:30:18.205Z,102398.06
2023-05-24T00:32:45.542Z,102387.44
2023-05-24T00:35:12.720Z,102391.56
2023-05-24T00:37:41.977Z,102391.38
2023-05-24T00:40:10.037Z,102380.69
2023-05-24T00:42:37.508Z,102385.75
2023-05-24T00:45:05.024Z,102384.72
2023-05-24T00:47:33.187Z,102382.00
2023-05-24T00:50:00.679Z,102378.50
2023-05-24T00:52:27.878Z,102373.50
2023-05-24T00:54:55.229Z,102371.75
2023-05-24T00:57:23.968Z,102363.81
2023-05-24T00:59:54.499Z,102367.38
2023-05-24T01:02:22.317Z,102376.91
2023-05-24T01:04:49.500Z,102378.69
2023-05-24T01:07:32.697Z,102372.84
2023-05-24T01:10:22.260Z,102366.00
2023-05-24T01:13:04.274Z,102380.75
2023-05-24T01:15:51.103Z,102374.78
2023-05-24T01:18:30.317Z,102379.28
2023-05-24T01:21:07.080Z,102379.47
2023-05-24T01:24:02.365Z,102382.03
2023-05-24T01:26:42.390Z,102382.91
2023-05-24T01:29:10.350Z,102382.03
2023-05-24T01:31:37.988Z,102385.50
2023-05-24T01:34:05.144Z,102382.84
2023-05-24T01:36:32.348Z,102378.00
2023-05-24T01:38:59.520Z,102378.81
2023-05-24T01:41:47.550Z,102371.81
2023-05-24T01:44:37.686Z,102383.91
2023-05-24T01:47:41.535Z,102384.56
2023-05-24T01:50:28.139Z,102374.16
2023-05-24T01:52:58.806Z,102382.88
2023-05-24T01:55:28.250Z,102371.09
2023-05-24T01:58:00.705Z,102374.72
2023-05-24T02:00:29.130Z,102364.63
2023-05-24T02:02:57.775Z,102363.75
2023-05-24T02:05:25.122Z,102365.84
2023-05-24T02:07:52.460Z,102364.31
2023-05-24T02:10:19.871Z,102365.34
2023-05-24T02:12:47.026Z,102359.44
2023-05-24T02:15:15.371Z,102359.69
2023-05-24T02:17:43.368Z,102360.88
2023-05-24T02:20:13.398Z,102347.00
2023-05-24T02:22:41.519Z,102359.97
2023-05-24T02:25:08.845Z,102346.13
2023-05-24T02:27:36.128Z,102351.03
2023-05-24T02:30:03.492Z,102358.81
2023-05-24T02:32:31.403Z,102356.19
2023-05-24T02:35:01.990Z,102364.00
2023-05-24T02:37:29.109Z,102360.59
2023-05-24T02:39:56.306Z,102366.50
2023-05-24T02:42:23.478Z,102358.75
2023-05-24T02:44:52.577Z,102353.44
2023-05-24T02:47:20.051Z,102354.53
2023-05-24T02:49:47.293Z,102354.09
2023-05-24T02:52:14.807Z,102357.78
2023-05-24T02:54:41.956Z,102369.72
2023-05-24T02:57:09.111Z,102361.19
2023-05-24T02:59:36.548Z,102362.22
2023-05-24T03:02:03.801Z,102368.25
2023-05-24T03:04:30.980Z,102365.78
2023-05-24T03:06:58.128Z,102366.94
2023-05-24T03:09:25.466Z,102362.69
2023-05-24T03:11:54.452Z,102367.97
2023-05-24T03:14:25.116Z,102360.00
2023-05-24T03:16:52.394Z,102367.25
2023-05-24T03:19:19.712Z,102370.78
2023-05-24T03:21:46.886Z,102353.22
2023-05-24T03:24:14.594Z,102353.09
2023-05-24T03:26:41.701Z,102360.22
2023-05-24T03:29:08.879Z,102351.59
2023-05-24T03:31:36.501Z,102352.41
2023-05-24T03:34:03.651Z,102342.75
2023-05-24T03:36:30.926Z,102342.81
2023-05-24T03:38:59.131Z,102345.25
2023-05-24T03:41:27.624Z,102345.97
2023-05-24T03:43:54.843Z,102342.31
2023-05-24T03:46:22.599Z,102345.84
2023-05-24T03:48:49.937Z,102354.69
2023-05-24T03:51:17.161Z,102350.34
2023-05-24T03:53:45.744Z,102345.63
2023-05-24T03:56:12.859Z,102354.19
2023-05-24T03:58:40.014Z,102348.94
2023-05-24T04:01:08.199Z,102351.59
2023-05-24T04:03:35.412Z,102351.34
2023-05-24T04:06:02.700Z,102345.97
2023-05-24T04:08:29.903Z,102354.09
2023-05-24T04:10:56.998Z,102349.59
2023-05-24T04:13:24.164Z,102346.94
2023-05-24T04:15:51.386Z,102346.19
2023-05-24T04:18:18.661Z,102347.22
2023-05-24T04:20:45.866Z,102347.16
2023-05-24T04:23:12.990Z,102349.53
2023-05-24T04:25:40.177Z,102352.34
2023-05-24T04:28:08.467Z,102348.09
2023-05-24T04:30:36.927Z,102343.03
2023-05-24T04:33:04.201Z,102340.59
2023-05-24T04:35:31.459Z,102342.13
2023-05-24T04:37:59.793Z,102354.41
2023-05-24T04:40:27.079Z,102351.31
2023-05-24T04:42:54.193Z,102349.03
2023-05-24T04:45:21.444Z,102353.59
2023-05-24T04:47:48.603Z,102358.16
2023-05-24T04:50:15.994Z,102359.75
2023-05-24T04:52:43.291Z,102355.50
2023-05-24T04:55:10.618Z,102354.41
2023-05-24T04:57:37.702Z,102358.97
2023-05-24T05:00:07.411Z,102357.47
2023-05-24T05:02:34.675Z,102363.09
2023-05-24T05:05:02.070Z,102360.72
2023-05-24T05:07:29.229Z,102357.13
2023-05-24T05:09:56.963Z,102360.00
2023-05-24T05:12:24.106Z,102364.00
2023-05-24T05:14:51.881Z,102356.34
2023-05-24T05:17:18.980Z,102366.34
2023-05-24T05:19:46.152Z,102368.19
2023-05-24T05:22:13.312Z,102363.00
2023-05-24T05:24:40.429Z,102368.59
2023-05-24T05:27:07.818Z,102361.84
2023-05-24T05:29:34.971Z,102367.34
2023-05-24T05:32:02.121Z,102367.91
2023-05-24T05:34:29.208Z,102369.09
2023-05-24T05:36:56.397Z,102376.47
2023-05-24T05:39:23.504Z,102365.84
2023-05-24T05:41:51.011Z,102368.28
2023-05-24T05:44:18.539Z,102367.25
2023-05-24T05:46:46.392Z,102368.72
2023-05-24T05:49:15.508Z,102370.53
2023-05-24T05:51:42.713Z,102369.34
2023-05-24T05:54:14.401Z,102371.03
2023-05-24T05:56:45.800Z,102371.69
2023-05-24T05:59:13.176Z,102369.91
2023-05-24T06:01:41.133Z,102378.56
2023-05-24T06:04:08.394Z,102374.38
2023-05-24T06:06:36.205Z,102366.25
2023-05-24T06:09:03.573Z,102370.78
2023-05-24T06:11:30.679Z,102367.56
2023-05-24T06:13:57.845Z,102366.91
2023-05-24T06:16:25.018Z,102373.66
2023-05-24T06:19:05.567Z,102379.25
2023-05-24T06:21:33.948Z,102382.34
2023-05-24T06:24:02.792Z,102379.94
2023-05-24T06:26:30.382Z,102384.78
2023-05-24T06:28:57.484Z,102394.94
2023-05-24T06:31:24.787Z,102387.25
2023-05-24T06:34:03.918Z,102381.91
2023-05-24T06:36:41.231Z,102393.59
2023-05-24T06:39:11.993Z,102383.13
2023-05-24T06:41:39.875Z,102390.41
2023-05-24T06:44:07.693Z,102381.28
2023-05-24T06:46:35.125Z,102387.31
2023-05-24T06:49:03.194Z,102394.69
2023-05-24T06:51:31.220Z,102387.88
2023-05-24T06:53:58.418Z,102395.69
2023-05-24T06:56:26.926Z,102405.34
2023-05-24T06:58:54.104Z,102407.41
2023-05-24T07:01:21.256Z,102406.03
2023-05-24T07:03:48.456Z,102396.88
2023-05-24T07:06:16.325Z,102406.31
2023-05-24T07:08:43.496Z,102413.09
2023-05-24T07:11:10.699Z,102405.38
2023-05-24T07:13:37.890Z,102414.19
2023-05-24T07:16:07.197Z,102399.88
2023-05-24T07:18:34.433Z,102402.28
2023-05-24T07:21:01.719Z,102413.22
2023-05-24T07:23:29.203Z,102406.44
2023-05-24T07:25:56.646Z,102408.56
2023-05-24T07:28:23.970Z,102408.28
2023-05-24T07:30:52.327Z,102406.66
2023-05-24T07:33:19.966Z,102399.38
2023-05-24T07:35:51.392Z,102414.13
2023-05-24T07:38:18.842Z,102416.84
2023-05-24T07:40:46.218Z,102412.03
2023-05-24T07:43:13.484Z,102414.63
2023-05-24T07:45:41.137Z,102416.09
2023-05-24T07:48:08.614Z,102408.91
2023-05-24T07:50:36.405Z,102418.16
2023-05-24T07:53:05.271Z,102417.13
2023-05-24T07:55:32.436Z,102407.38
2023-05-24T07:57:59.637Z,102415.31
2023-05-24T08:00:26.962Z,102409.50
2023-05-24T08:02:54.298Z,102417.47
2023-05-24T08:05:22.245Z,102406.31
2023-05-24T08:07:49.432Z,102406.06
2023-05-24T08:10:16.905Z,102408.94
2023-05-24T08:12:44.759Z,102398.41
2023-05-24T08:15:11.934Z,102412.53
2023-05-24T08:17:39.392Z,102396.91
2023-05-24T08:20:12.586Z,102393.00
2023-05-24T08:22:39.737Z,102393.03
2023-05-24T08:25:07.636Z,102403.78
2023-05-24T08:27:34.861Z,102414.88
2023-05-24T08:30:02.085Z,102406.59
2023-05-24T08:32:29.484Z,102411.53
2023-05-24T08:35:06.645Z,102404.34
2023-05-24T08:37:38.133Z,102403.31
2023-05-24T08:40:05.855Z,102400.03
2023-05-24T08:42:33.453Z,102397.38
2023-05-24T08:45:08.521Z,102403.50
2023-05-24T08:47:36.860Z,102409.06
2023-05-24T08:50:05.489Z,102405.34
2023-05-24T08:52:33.130Z,102391.03
2023-05-24T08:55:00.704Z,102402.59
2023-05-24T08:57:28.447Z,102409.81
2023-05-24T08:59:56.227Z,102411.38
2023-05-24T09:02:24.382Z,102410.28
2023-05-24T09:04:53.138Z,102410.69
2023-05-24T09:07:25.016Z,102414.09
2023-05-24T09:10:01.133Z,102404.38
2023-05-24T09:12:38.195Z,102406.88
2023-05-24T09:15:07.609Z,102404.66
2023-05-24T09:17:36.444Z,102404.28
2023-05-24T09:20:07.530Z,102404.44
2023-05-24T09:22:38.135Z,102415.97
2023-05-24T09:25:09.609Z,102405.25
2023-05-24T09:27:40.457Z,102417.03
2023-05-24T09:30:12.883Z,102407.78
2023-05-24T09:32:41.430Z,102413.84
2023-05-24T09:35:09.836Z,102397.63
2023-05-24T09:37:38.830Z,102416.06
2023-05-24T09:40:07.971Z,102412.19
2023-05-24T09:42:35.206Z,102410.44
2023-05-24T09:45:09.536Z,102400.81
2023-05-24T09:47:39.444Z,102401.81
2023-05-24T09:50:13.223Z,102398.81
2023-05-24T09:52:41.130Z,102413.03
2023-05-24T09:55:22.930Z,102404.44
2023-05-24T09:57:53.459Z,102403.19
2023-05-24T10:00:24.057Z,102409.81
2023-05-24T10:03:08.206Z,102404.69
2023-05-24T10:05:35.905Z,102412.47
2023-05-24T10:08:05.184Z,102413.03
2023-05-24T10:10:33.665Z,102411.19
2023-05-24T10:13:02.036Z,102408.13
2023-05-24T10:15:30.783Z,102412.75
2023-05-24T10:17:59.166Z,102412.28
2023-05-24T10:20:26.824Z,102419.16
2023-05-24T10:22:59.839Z,102410.91
2023-05-24T10:25:28.624Z,102406.00
2023-05-24T10:27:58.720Z,102407.75
2023-05-24T10:30:34.464Z,102418.03
2023-05-24T10:33:02.818Z,102406.59
2023-05-24T10:35:31.674Z,102413.66
2023-05-24T10:37:59.734Z,102411.69
2023-05-24T10:40:27.003Z,102416.63
2023-05-24T10:42:54.816Z,102410.63
2023-05-24T10:45:24.703Z,102412.56
2023-05-24T10:47:53.764Z,102418.81
2023-05-24T10:50:22.338Z,102410.09
2023-05-24T10:52:49.756Z,102402.50
2023-05-24T10:55:19.570Z,102408.69
2023-05-24T10:57:47.474Z,102397.69
2023-05-24T11:03:01.557Z,102404.84
2023-05-24T11:05:55.419Z,102407.56
2023-05-24T11:08:31.015Z,102411.78
2023-05-24T11:11:24.402Z,102409.97
2023-05-24T11:13:57.511Z,102409.13
2023-05-24T11:16:41.211Z,102411.81
2023-05-24T11:19:13.258Z,102413.28
2023-05-24T11:21:52.276Z,102404.66
2023-05-24T11:24:21.404Z,102403.72
2023-05-24T11:26:50.324Z,102404.84
2023-05-24T11:29:19.544Z,102405.72
2023-05-24T11:31:54.202Z,102415.50
2023-05-24T11:34:22.179Z,102401.81
2023-05-24T11:36:50.110Z,102401.13
2023-05-24T11:39:18.120Z,102404.47
2023-05-24T11:41:47.505Z,102404.31
2023-05-24T11:44:19.589Z,102408.06
2023-05-24T11:46:47.438Z,102392.09
2023-05-24T11:49:17.622Z,102405.75
2023-05-24T11:51:45.449Z,102407.00
2023-05-24T11:54:12.719Z,102403.50
2023-05-24T11:56:40.167Z,102405.06
2023-05-24T11:59:07.922Z,102400.50
2023-05-24T12:01:35.283Z,102405.69
2023-05-24T12:04:02.598Z,102406.69
2023-05-24T12:06:38.207Z,102394.66
2023-05-24T12:09:08.635Z,102384.97
2023-05-24T12:11:39.970Z,102400.94
2023-05-24T12:14:17.901Z,102402.81
2023-05-24T12:16:46.569Z,102384.09
2023-05-24T12:19:32.468Z,102397.81
2023-05-24T12:22:01.876Z,102400.59
2023-05-24T12:24:31.378Z,102398.16
2023-05-24T12:27:06.985Z,102393.91
2023-05-24T12:29:40.301Z,102394.69
2023-05-24T12:32:13.150Z,102392.75
2023-05-24T12:34:43.489Z,102389.34
2023-05-24T12:37:12.403Z,102391.81
2023-05-24T12:39:42.373Z,102389.38
2023-05-24T12:42:11.536Z,102389.44
2023-05-24T12:44:39.282Z,102376.09
2023-05-24T12:47:08.852Z,102393.75
2023-05-24T12:49:36.343Z,102391.34
2023-05-24T12:52:03.753Z,102399.97
2023-05-24T12:54:31.203Z,102397.13
2023-05-24T12:57:03.396Z,102393.84
2023-05-24T12:59:30.980Z,102396.56
2023-05-24T13:01:58.249Z,102394.81
2023-05-24T13:04:30.581Z,102396.53
2023-05-24T13:06:57.805Z,102401.88
2023-05-24T13:09:26.285Z,102406.22
2023-05-24T13:11:54.286Z,102401.81
2023-05-24T13:14:22.277Z,102396.44
2023-05-24T13:16:49.689Z,102401.72
2023-05-24T13:19:17.356Z,102393.75
2023-05-24T13:21:45.635Z,102398.19
2023-05-24T13:24:16.446Z,102403.75
2023-05-24T13:26:44.542Z,102406.91
2023-05-24T13:31:42.061Z,102399.28
2023-05-24T13:34:11.275Z,102398.53
2023-05-24T13:36:39.260Z,102399.34
2023-05-24T13:41:40.657Z,102386.66
2023-05-24T13:44:08.635Z,102388.84
2023-05-24T13:46:36.649Z,102394.19
2023-05-24T13:49:04.532Z,102393.81
2023-05-24T13:51:31.975Z,102393.19
2023-05-24T13:53:59.700Z,102375.00
2023-05-24T13:56:32.600Z,102381.03
2023-05-24T13:59:01.617Z,102389.22
2023-05-24T14:01:29.117Z,102390.22
2023-05-24T14:03:56.503Z,102382.25
2023-05-24T14:06:23.755Z,102385.75
2023-05-24T14:08:51.297Z,102384.06
2023-05-24T14:11:19.659Z,102388.19
2023-05-24T14:16:17.330Z,102393.94
2023-05-24T14:18:45.795Z,102387.16
2023-05-24T14:21:12.922Z,102387.16
2023-05-24T14:23:39.978Z,102385.81
2023-05-24T14:26:07.665Z,102385.13
2023-05-24T14:28:34.844Z,102385.53
2023-05-24T14:31:02.408Z,102384.56
2023-05-24T14:33:29.658Z,102382.00
2023-05-24T14:35:57.173Z,102378.72
2023-05-24T14:38:24.982Z,102381.78
2023-05-24T14:40:52.803Z,102376.13
2023-05-24T14:43:20.176Z,102368.25
2023-05-24T14:45:47.582Z,102367.44
2023-05-24T14:48:16.699Z,102376.50
2023-05-24T14:50:43.849Z,102371.41
2023-05-24T14:53:15.084Z,102375.78
2023-05-24T14:55:43.708Z,102376.91
2023-05-24T14:58:15.092Z,102370.75
2023-05-24T15:00:43.311Z,102363.00
2023-05-24T15:03:14.965Z,102362.09
2023-05-24T15:05:43.107Z,102356.88
2023-05-24T15:08:11.433Z,102371.78
2023-05-24T15:10:39.406Z,102368.22
2023-05-24T15:13:06.695Z,102363.00
2023-05-24T15:15:33.845Z,102372.66
2023-05-24T15:18:01.141Z,102369.16
2023-05-24T15:20:28.647Z,102373.47
2023-05-24T15:22:55.897Z,102376.84
2023-05-24T15:25:23.040Z,102376.94
2023-05-24T15:27:50.224Z,102369.16
2023-05-24T15:30:19.763Z,102367.34
2023-05-24T15:32:47.498Z,102381.78
2023-05-24T15:35:15.304Z,102381.94
2023-05-24T15:37:42.793Z,102378.34
2023-05-24T15:40:11.240Z,102373.41
2023-05-24T15:42:39.548Z,102376.59
2023-05-24T15:45:07.411Z,102355.00
2023-05-24T15:47:39.854Z,102372.69
2023-05-24T15:50:09.086Z,102364.75
2023-05-24T15:52:36.702Z,102371.78
2023-05-24T15:55:04.603Z,102369.06
2023-05-24T15:57:31.811Z,102369.78
2023-05-24T15:59:58.943Z,102380.16
2023-05-24T16:02:26.909Z,102378.19
2023-05-24T16:04:54.463Z,102372.72
2023-05-24T16:07:22.320Z,102376.84
2023-05-24T16:09:52.798Z,102370.44
2023-05-24T16:12:20.243Z,102373.63
2023-05-24T16:14:47.459Z,102370.59
2023-05-24T16:17:17.483Z,102378.00
2023-05-24T16:19:49.364Z,102383.19
2023-05-24T16:22:16.819Z,102371.50
2023-05-24T16:24:44.910Z,102379.97
2023-05-24T16:27:12.080Z,102375.44
2023-05-24T16:29:39.426Z,102370.97
2023-05-24T16:32:07.666Z,102376.88
2023-05-24T16:34:44.797Z,102375.78
2023-05-24T16:37:22.372Z,102380.69
2023-05-24T16:39:49.530Z,102368.47
2023-05-24T16:42:16.713Z,102368.47
2023-05-24T16:44:43.904Z,102372.94
2023-05-24T16:47:11.821Z,102370.91
2023-05-24T16:49:39.034Z,102365.66
2023-05-24T16:52:06.800Z,102364.66
2023-05-24T16:54:33.885Z,102369.88
2023-05-24T16:57:01.641Z,102367.16
2023-05-24T16:59:28.893Z,102377.69
2023-05-24T17:01:56.284Z,102364.50
2023-05-24T17:04:23.463Z,102369.72
2023-05-24T17:06:50.876Z,102370.50
2023-05-24T17:09:18.016Z,102368.84
2023-05-24T17:11:45.495Z,102369.66
2023-05-24T17:14:12.648Z,102368.78
2023-05-24T17:16:39.875Z,102370.38
2023-05-24T17:19:07.048Z,102374.59
2023-05-24T17:21:34.197Z,102377.19
2023-05-24T17:24:01.324Z,102381.28
2023-05-24T17:26:28.624Z,102373.03
2023-05-24T17:28:56.379Z,102372.91
2023-05-24T17:31:23.596Z,102378.25
2023-05-24T17:33:51.116Z,102359.06
2023-05-24T17:36:18.504Z,102375.47
2023-05-24T17:38:45.714Z,102372.72
2023-05-24T17:41:12.907Z,102370.00
2023-05-24T17:43:40.595Z,102376.09
2023-05-24T17:46:09.449Z,102385.84
2023-05-24T17:48:37.728Z,102379.38
2023-05-24T17:51:08.210Z,102374.09
2023-05-24T17:53:37.290Z,102384.59
2023-05-24T17:56:05.520Z,102388.00
2023-05-24T17:58:35.736Z,102392.19
2023-05-24T18:01:05.686Z,102394.78
2023-05-24T18:03:34.182Z,102388.47
2023-05-24T18:06:01.412Z,102392.09
2023-05-24T18:08:28.637Z,102384.44
2023-05-24T18:10:55.804Z,102388.09
2023-05-24T18:13:22.999Z,102378.41
2023-05-24T18:15:51.225Z,102370.47
2023-05-24T18:18:18.720Z,102375.75
2023-05-24T18:20:45.927Z,102381.69
2023-05-24T18:23:13.838Z,102389.81
2023-05-24T18:25:41.302Z,102380.97
2023-05-24T18:28:08.663Z,102391.47
2023-05-24T18:30:35.802Z,102391.47
2023-05-24T18:33:07.909Z,102388.03
2023-05-24T18:35:35.821Z,102379.06
2023-05-24T18:38:04.796Z,102382.66
2023-05-24T18:40:31.965Z,102387.16
2023-05-24T18:42:59.131Z,102384.47
2023-05-24T18:45:26.296Z,102379.34
2023-05-24T18:47:54.222Z,102388.13
2023-05-24T18:50:23.448Z,102385.50
2023-05-24T18:52:50.877Z,102392.41
2023-05-24T18:55:18.466Z,102397.50
2023-05-24T18:57:45.605Z,102398.09
2023-05-24T19:00:14.081Z,102396.94
2023-05-24T19:02:41.490Z,102404.06
2023-05-24T19:05:09.404Z,102398.63
2023-05-24T19:07:37.271Z,102402.69
2023-05-24T19:10:05.417Z,102411.19
2023-05-24T19:12:32.775Z,102409.41
2023-05-24T19:15:02.946Z,102404.22
2023-05-24T19:17:30.310Z,102414.75
2023-05-24T19:19:57.596Z,102419.00
2023-05-24T19:22:26.383Z,102409.84
2023-05-24T19:24:54.003Z,102416.66
2023-05-24T19:27:21.859Z,102420.09
2023-05-24T19:29:49.930Z,102416.47
2023-05-24T19:32:25.841Z,102421.66
2023-05-24T19:35:22.813Z,102432.25
2023-05-24T19:37:55.712Z,102428.28
2023-05-24T19:40:27.920Z,102431.72
2023-05-24T19:42:55.287Z,102440.44
2023-05-24T19:45:26.012Z,102447.16
2023-05-24T19:47:53.447Z,102440.19
2023-05-24T19:50:20.985Z,102441.97
2023-05-24T19:52:48.208Z,102447.94
2023-05-24T19:55:16.183Z,102447.81
2023-05-24T19:57:45.998Z,102450.16
2023-05-24T20:00:14.285Z,102452.00
2023-05-24T20:02:41.713Z,102452.75
2023-05-24T20:05:09.414Z,102458.72
2023-05-24T20:07:37.548Z,102450.63
2023-05-24T20:10:05.661Z,102451.28
2023-05-24T20:12:34.757Z,102455.47
2023-05-24T20:15:02.226Z,102456.25
2023-05-24T20:17:29.917Z,102467.47
2023-05-24T20:19:57.392Z,102468.22
2023-05-24T20:22:24.706Z,102463.59
2023-05-24T20:24:55.348Z,102480.03
2023-05-24T20:27:22.741Z,102466.94
2023-05-24T20:29:50.117Z,102475.81
2023-05-24T20:32:17.645Z,102473.06
2023-05-24T20:34:45.639Z,102469.44
2023-05-24T20:37:13.132Z,102480.81
2023-05-24T20:39:40.481Z,102477.28
2023-05-24T20:42:11.201Z,102479.69
2023-05-24T20:44:38.356Z,102480.25
2023-05-24T20:47:08.585Z,102482.84
2023-05-24T20:49:36.952Z,102474.59
2023-05-24T20:52:04.850Z,102482.25
2023-05-24T20:54:32.243Z,102488.22
2023-05-24T20:56:59.960Z,102485.38
2023-05-24T20:59:27.211Z,102488.16
2023-05-24T21:01:54.532Z,102488.19
2023-05-24T21:04:22.612Z,102489.59
2023-05-24T21:06:49.983Z,102486.94
2023-05-24T21:09:17.356Z,102494.69
2023-05-24T21:11:45.724Z,102492.25
2023-05-24T21:14:14.056Z,102490.50
2023-05-24T21:16:41.435Z,102484.41
2023-05-24T21:19:09.026Z,102494.72
2023-05-24T21:21:38.035Z,102490.31
2023-05-24T21:24:05.571Z,102484.09
2023-05-24T21:26:35.826Z,102494.38
2023-05-24T21:29:03.392Z,102492.50
2023-05-24T21:31:32.130Z,102497.59
2023-05-24T21:33:59.697Z,102498.41
2023-05-24T21:36:29.252Z,102502.69
2023-05-24T21:38:57.128Z,102506.00
2023-05-24T21:41:24.647Z,102516.41
2023-05-24T21:43:55.234Z,102516.19
2023-05-24T21:46:22.527Z,102513.75
2023-05-24T21:48:53.783Z,102517.97
2023-05-24T21:51:30.955Z,102515.19
2023-05-24T21:54:01.937Z,102518.63
2023-05-24T21:56:30.105Z,102516.66
2023-05-24T21:58:58.279Z,102527.19
2023-05-24T22:01:26.425Z,102530.50
2023-05-24T22:03:55.465Z,102533.00
2023-05-24T22:06:24.414Z,102520.66
2023-05-24T22:09:12.319Z,102528.19
2023-05-24T22:11:41.483Z,102527.84
2023-05-24T22:14:10.558Z,102536.72
2023-05-24T22:16:44.250Z,102533.91
2023-05-24T22:19:16.992Z,102532.84
2023-05-24T22:21:51.027Z,102530.91
2023-05-24T22:24:18.609Z,102546.53
2023-05-24T22:26:47.284Z,102544.66
2023-05-24T22:29:15.768Z,102555.78
2023-05-24T22:31:44.821Z,102542.44
2023-05-24T22:34:13.976Z,102543.34
2023-05-24T22:36:42.173Z,102544.94
2023-05-24T22:39:11.282Z,102545.91
2023-05-24T22:41:38.568Z,102540.47
2023-05-24T22:44:06.441Z,102547.44
2023-05-24T22:46:34.451Z,102539.53
2023-05-24T22:49:03.232Z,102540.09
2023-05-24T22:51:30.507Z,102528.63
2023-05-24T22:53:57.879Z,102542.66
2023-05-24T22:56:27.038Z,102545.19
2023-05-24T22:58:54.508Z,102538.13
2023-05-24T23:01:22.365Z,102534.38
2023-05-24T23:03:49.523Z,102548.38
2023-05-24T23:06:17.912Z,102552.69
2023-05-24T23:08:48.258Z,102558.59
2023-05-24T23:11:17.451Z,102551.63
2023-05-24T23:13:46.627Z,102546.28
2023-05-24T23:16:18.227Z,102554.97
2023-05-24T23:18:46.086Z,102546.06
2023-05-24T23:21:15.278Z,102558.34
2023-05-24T23:23:44.272Z,102564.22
2023-05-24T23:26:11.767Z,102566.63
2023-05-24T23:28:39.098Z,102551.56
2023-05-24T23:31:09.950Z,102563.72
2023-05-24T23:33:37.199Z,102555.81
2023-05-24T23:36:04.704Z,102549.59
2023-05-24T23:38:32.034Z,102556.47
2023-05-24T23:40:59.460Z,102561.44
2023-05-24T23:43:26.679Z,102553.53
2023-05-24T23:45:53.860Z,102550.75
2023-05-24T23:48:23.086Z,102557.75
2023-05-24T23:50:54.415Z,102558.47
2023-05-24T23:53:22.174Z,102561.75
2023-05-24T23:55:49.298Z,102558.97
2023-05-24T23:58:16.989Z,102557.13
